createdAt,value
2022-11-09T00:00:42.672Z,98623.78
2022-11-09T00:03:10.649Z,98623.91
2022-11-09T00:05:37.742Z,98628.31
2022-11-09T00:08:09.266Z,98616.16
2022-11-09T00:10:36.381Z,98619.78
2022-11-09T00:13:03.939Z,98624.22
2022-11-09T00:15:30.887Z,98620.84
2022-11-09T00:18:00.599Z,98619.06
2022-11-09T00:20:27.158Z,98619.16
2022-11-09T00:22:53.740Z,98617.56
2022-11-09T00:25:20.362Z,98622.03
2022-11-09T00:27:46.832Z,98620.34
2022-11-09T00:30:13.784Z,98619.50
2022-11-09T00:32:40.347Z,98636.34
2022-11-09T00:35:07.343Z,98630.19
2022-11-09T00:37:35.060Z,98620.56
2022-11-09T00:40:02.200Z,98629.34
2022-11-09T00:42:28.819Z,98619.72
2022-11-09T00:44:55.470Z,98627.66
2022-11-09T00:47:22.016Z,98627.78
2022-11-09T00:49:49.086Z,98632.13
2022-11-09T00:52:15.719Z,98630.31
2022-11-09T00:54:42.337Z,98629.47
2022-11-09T00:57:08.916Z,98630.41
2022-11-09T00:59:35.608Z,98633.16
2022-11-09T01:02:03.502Z,98627.78
2022-11-09T01:04:30.130Z,98633.06
2022-11-09T01:06:57.188Z,98631.25
2022-11-09T01:09:23.903Z,98606.66
2022-11-09T01:11:50.851Z,98624.28
2022-11-09T01:14:21.422Z,98624.28
2022-11-09T01:16:48.087Z,98618.97
2022-11-09T01:19:14.570Z,98608.41
2022-11-09T01:21:41.223Z,98612.84
2022-11-09T01:24:09.131Z,98607.69
2022-11-09T01:28:58.053Z,98611.03
2022-11-09T01:31:25.389Z,98607.69
2022-11-09T01:33:53.343Z,98610.34
2022-11-09T01:36:22.709Z,98611.16
2022-11-09T01:38:49.767Z,98608.53
2022-11-09T01:41:20.105Z,98612.97
2022-11-09T01:44:13.385Z,98619.09
2022-11-09T01:46:58.147Z,98609.47
2022-11-09T01:49:50.926Z,98604.19
2022-11-09T01:52:32.600Z,98604.19
2022-11-09T01:55:05.051Z,98604.31
2022-11-09T01:57:36.191Z,98603.34
2022-11-09T02:00:13.077Z,98596.25
2022-11-09T02:02:44.584Z,98598.06
2022-11-09T02:05:16.817Z,98598.88
2022-11-09T02:07:45.238Z,98592.78
2022-11-09T02:10:19.016Z,98593.72
2022-11-09T02:12:46.176Z,98600.69
2022-11-09T02:15:13.394Z,98574.09
2022-11-09T02:17:41.924Z,98597.94
2022-11-09T02:20:14.242Z,98595.41
2022-11-09T02:22:41.618Z,98586.53
2022-11-09T02:25:10.151Z,98593.59
2022-11-09T02:27:39.638Z,98572.50
2022-11-09T02:30:06.840Z,98590.13
2022-11-09T02:32:33.502Z,98587.59
2022-11-09T02:35:00.742Z,98588.31
2022-11-09T02:37:28.476Z,98577.84
2022-11-09T02:39:57.392Z,98590.97
2022-11-09T02:42:24.305Z,98585.66
2022-11-09T02:45:00.727Z,98590.13
2022-11-09T02:47:27.690Z,98585.78
2022-11-09T02:49:54.229Z,98582.31
2022-11-09T02:52:20.900Z,98583.25
2022-11-09T02:54:47.663Z,98572.69
2022-11-09T02:57:14.688Z,98573.63
2022-11-09T02:59:42.700Z,98555.06
2022-11-09T03:02:10.711Z,98574.47
2022-11-09T03:04:39.257Z,98578.94
2022-11-09T03:07:07.721Z,98574.59
2022-11-09T03:09:34.619Z,98572.91
2022-11-09T03:12:21.198Z,98574.72
2022-11-09T03:14:47.803Z,98571.94
2022-11-09T03:17:16.673Z,98574.59
2022-11-09T03:19:43.876Z,98573.84
2022-11-09T03:22:10.932Z,98563.25
2022-11-09T03:24:38.533Z,98567.72
2022-11-09T03:27:05.443Z,98573.97
2022-11-09T03:29:32.142Z,98569.53
2022-11-09T03:31:58.759Z,98572.28
2022-11-09T03:34:25.830Z,98582.03
2022-11-09T03:36:53.551Z,98597.03
2022-11-09T03:39:21.195Z,98590.91
2022-11-09T03:41:48.233Z,98599.78
2022-11-09T03:44:14.863Z,98590.16
2022-11-09T03:46:41.477Z,98585.84
2022-11-09T03:51:20.079Z,98590.41
2022-11-09T03:53:46.649Z,98589.53
2022-11-09T03:56:13.233Z,98594.94
2022-11-09T03:58:39.903Z,98589.78
2022-11-09T04:01:06.598Z,98585.44
2022-11-09T04:03:33.282Z,98588.91
2022-11-09T04:06:00.081Z,98581.22
2022-11-09T04:08:26.617Z,98581.22
2022-11-09T04:10:53.197Z,98577.75
2022-11-09T04:13:20.281Z,98578.59
2022-11-09T04:15:47.021Z,98574.38
2022-11-09T04:18:16.899Z,98578.78
2022-11-09T04:20:43.911Z,98574.50
2022-11-09T04:23:12.907Z,98551.47
2022-11-09T04:25:42.124Z,98565.81
2022-11-09T04:28:17.600Z,98566.75
2022-11-09T04:30:44.350Z,98567.63
2022-11-09T04:33:10.925Z,98558.84
2022-11-09T04:35:38.428Z,98565.94
2022-11-09T04:38:07.727Z,98572.16
2022-11-09T04:40:35.856Z,98560.84
2022-11-09T04:43:04.899Z,98551.22
2022-11-09T04:45:33.930Z,98566.25
2022-11-09T04:48:02.032Z,98554.13
2022-11-09T04:50:29.860Z,98563.75
2022-11-09T04:53:07.905Z,98554.44
2022-11-09T04:55:35.401Z,98562.03
2022-11-09T04:58:01.960Z,98563.81
2022-11-09T05:00:28.827Z,98558.66
2022-11-09T05:02:55.405Z,98559.53
2022-11-09T05:05:21.960Z,98557.16
2022-11-09T05:07:48.491Z,98555.28
2022-11-09T05:10:15.516Z,98549.97
2022-11-09T05:12:45.838Z,98550.06
2022-11-09T05:15:13.161Z,98550.06
2022-11-09T05:17:39.776Z,98558.00
2022-11-09T05:20:06.899Z,98564.22
2022-11-09T05:22:52.245Z,98562.56
2022-11-09T05:25:18.843Z,98569.63
2022-11-09T05:27:45.351Z,98563.53
2022-11-09T05:30:12.304Z,98556.75
2022-11-09T05:32:39.483Z,98565.31
2022-11-09T05:35:06.636Z,98567.13
2022-11-09T05:37:38.207Z,98565.44
2022-11-09T05:40:06.150Z,98575.16
2022-11-09T05:42:32.649Z,98576.94
2022-11-09T05:45:15.137Z,98562.03
2022-11-09T05:47:45.974Z,98569.00
2022-11-09T05:50:14.927Z,98570.94
2022-11-09T05:52:41.724Z,98568.31
2022-11-09T05:55:08.776Z,98578.88
2022-11-09T05:57:35.443Z,98590.28
2022-11-09T06:00:02.363Z,98580.78
2022-11-09T06:02:31.422Z,98570.31
2022-11-09T06:04:58.154Z,98573.78
2022-11-09T06:07:24.778Z,98576.44
2022-11-09T06:09:51.330Z,98574.63
2022-11-09T06:12:17.972Z,98577.38
2022-11-09T06:14:44.476Z,98580.03
2022-11-09T06:17:11.019Z,98575.59
2022-11-09T06:21:54.915Z,98580.16
2022-11-09T06:24:21.489Z,98587.22
2022-11-09T06:26:48.443Z,98581.09
2022-11-09T06:29:15.120Z,98591.66
2022-11-09T06:31:43.020Z,98589.03
2022-11-09T06:34:10.143Z,98589.13
2022-11-09T06:36:36.743Z,98595.25
2022-11-09T06:39:03.382Z,98590.84
2022-11-09T06:41:29.870Z,98597.91
2022-11-09T06:43:56.671Z,98588.19
2022-11-09T06:46:23.242Z,98591.66
2022-11-09T06:48:54.388Z,98588.06
2022-11-09T06:51:21.342Z,98579.19
2022-11-09T06:53:47.859Z,98587.13
2022-11-09T06:56:14.386Z,98586.06
2022-11-09T06:58:40.920Z,98593.03
2022-11-09T07:01:12.869Z,98599.16
2022-11-09T07:03:40.063Z,98587.63
2022-11-09T07:06:08.503Z,98594.63
2022-11-09T07:08:36.394Z,98591.03
2022-11-09T07:11:14.731Z,98584.75
2022-11-09T07:13:41.587Z,98583.81
2022-11-09T07:16:08.661Z,98591.72
2022-11-09T07:18:35.293Z,98584.66
2022-11-09T07:21:07.779Z,98581.91
2022-11-09T07:23:38.177Z,98585.28
2022-11-09T07:26:04.786Z,98580.88
2022-11-09T07:28:31.391Z,98591.31
2022-11-09T07:30:58.800Z,98587.72
2022-11-09T07:35:42.331Z,98580.88
2022-11-09T07:38:09.304Z,98592.81
2022-11-09T07:40:36.434Z,98587.41
2022-11-09T07:43:05.966Z,98586.47
2022-11-09T07:45:34.907Z,98585.50
2022-11-09T07:48:49.839Z,98576.50
2022-11-09T07:51:16.556Z,98579.16
2022-11-09T07:53:43.452Z,98572.91
2022-11-09T07:56:10.055Z,98575.31
2022-11-09T07:58:37.168Z,98569.09
2022-11-09T08:01:08.554Z,98574.25
2022-11-09T08:03:35.229Z,98575.00
2022-11-09T08:06:01.848Z,98566.94
2022-11-09T08:08:28.459Z,98576.44
2022-11-09T08:10:57.371Z,98577.06
2022-11-09T08:13:24.455Z,98573.22
2022-11-09T08:15:51.175Z,98568.56
2022-11-09T08:18:21.077Z,98566.78
2022-11-09T08:20:48.416Z,98564.34
2022-11-09T08:23:17.026Z,98564.97
2022-11-09T08:25:44.253Z,98558.34
2022-11-09T08:28:14.747Z,98567.72
2022-11-09T08:30:44.220Z,98562.56
2022-11-09T08:33:11.693Z,98554.84
2022-11-09T08:35:38.817Z,98561.06
2022-11-09T08:38:06.083Z,98567.72
2022-11-09T08:40:33.448Z,98559.78
2022-11-09T08:43:06.371Z,98561.47
2022-11-09T08:45:34.743Z,98563.88
2022-11-09T08:48:02.641Z,98546.94
2022-11-09T08:50:30.751Z,98551.16
2022-11-09T08:52:57.316Z,98551.91
2022-11-09T08:55:24.510Z,98546.47
2022-11-09T08:57:54.851Z,98548.91
2022-11-09T09:00:22.184Z,98543.50
2022-11-09T09:02:49.020Z,98547.00
2022-11-09T09:05:17.051Z,98550.38
2022-11-09T09:07:43.647Z,98547.84
2022-11-09T09:10:10.707Z,98541.19
2022-11-09T09:12:37.248Z,98557.13
2022-11-09T09:15:04.208Z,98555.94
2022-11-09T09:17:30.836Z,98555.72
2022-11-09T09:19:57.410Z,98560.03
2022-11-09T09:22:24.175Z,98557.16
2022-11-09T09:27:03.975Z,98557.66
2022-11-09T09:29:30.567Z,98546.94
2022-11-09T09:31:57.224Z,98541.47
2022-11-09T09:34:23.801Z,98544.00
2022-11-09T09:36:53.545Z,98547.38
2022-11-09T09:39:20.437Z,98551.59
2022-11-09T09:41:54.296Z,98545.22
2022-11-09T09:44:37.103Z,98551.13
2022-11-09T09:47:14.319Z,98548.34
2022-11-09T09:50:12.991Z,98540.28
2022-11-09T09:53:04.779Z,98545.47
2022-11-09T09:55:40.784Z,98550.88
2022-11-09T09:58:14.089Z,98550.78
2022-11-09T10:00:42.500Z,98529.81
2022-11-09T10:03:19.765Z,98542.59
2022-11-09T10:06:14.090Z,98540.66
2022-11-09T10:08:49.661Z,98542.38
2022-11-09T10:11:43.427Z,98537.91
2022-11-09T10:14:28.283Z,98536.94
2022-11-09T10:17:07.434Z,98519.09
2022-11-09T10:19:52.725Z,98529.13
2022-11-09T10:22:54.579Z,98537.91
2022-11-09T10:25:50.348Z,98520.19
2022-11-09T10:28:15.884Z,98538.03
2022-11-09T10:30:43.329Z,98539.81
2022-11-09T10:33:13.884Z,98534.50
2022-11-09T10:35:45.290Z,98533.69
2022-11-09T10:38:29.348Z,98532.72
2022-11-09T10:41:24.072Z,98534.41
2022-11-09T10:44:17.950Z,98543.19
2022-11-09T10:47:11.358Z,98531.66
2022-11-09T10:50:09.507Z,98531.53
2022-11-09T10:53:14.218Z,98527.91
2022-11-09T10:56:20.757Z,98523.34
2022-11-09T10:59:29.031Z,98525.03
2022-11-09T11:02:42.350Z,98516.13
2022-11-09T11:05:29.753Z,98523.97
2022-11-09T11:08:31.117Z,98519.50
2022-11-09T11:11:35.029Z,98516.72
2022-11-09T11:14:34.998Z,98516.50
2022-11-09T11:17:21.314Z,98519.03
2022-11-09T11:20:26.689Z,98506.59
2022-11-09T11:23:19.671Z,98510.00
2022-11-09T11:26:20.563Z,98511.69
2022-11-09T11:29:24.648Z,98509.63
2022-11-09T11:32:15.750Z,98490.63
2022-11-09T11:35:02.083Z,98502.16
2022-11-09T11:38:06.074Z,98502.91
2022-11-09T11:41:01.386Z,98507.13
2022-11-09T11:44:14.128Z,98511.44
2022-11-09T11:47:10.695Z,98499.38
2022-11-09T11:50:14.818Z,98502.03
2022-11-09T11:53:14.323Z,98510.00
2022-11-09T11:56:17.340Z,98512.63
2022-11-09T11:59:24.219Z,98501.09
2022-11-09T12:02:28.716Z,98504.47
2022-11-09T12:05:45.354Z,98504.34
2022-11-09T12:08:31.566Z,98496.25
2022-11-09T12:11:54.119Z,98497.84
2022-11-09T12:14:54.489Z,98490.72
2022-11-09T12:18:01.060Z,98495.91
2022-11-09T12:21:11.099Z,98500.25
2022-11-09T12:23:59.195Z,98484.22
2022-11-09T12:27:32.196Z,98489.41
2022-11-09T12:30:21.559Z,98488.44
2022-11-09T12:33:15.554Z,98487.34
2022-11-09T12:36:21.001Z,98494.25
2022-11-09T12:39:17.372Z,98497.75
2022-11-09T12:42:13.805Z,98485.91
2022-11-09T12:45:05.451Z,98501.22
2022-11-09T12:47:54.672Z,98492.44
2022-11-09T12:50:40.410Z,98498.69
2022-11-09T12:53:29.431Z,98499.75
2022-11-09T12:56:14.505Z,98505.88
2022-11-09T12:59:33.246Z,98493.72
2022-11-09T13:02:27.688Z,98503.50
2022-11-09T13:05:34.416Z,98494.81
2022-11-09T13:08:26.291Z,98504.59
2022-11-09T13:11:17.644Z,98505.41
2022-11-09T13:14:37.223Z,98508.91
2022-11-09T13:17:28.534Z,98509.75
2022-11-09T13:20:54.557Z,98509.75
2022-11-09T13:24:03.676Z,98501.66
2022-11-09T13:26:49.771Z,98507.84
2022-11-09T13:29:41.104Z,98505.88
2022-11-09T13:32:33.550Z,98505.06
2022-11-09T13:35:41.069Z,98510.03
2022-11-09T13:38:31.027Z,98504.72
2022-11-09T13:41:34.256Z,98492.31
2022-11-09T13:44:26.899Z,98499.31
2022-11-09T13:47:32.627Z,98495.69
2022-11-09T13:50:26.888Z,98496.53
2022-11-09T13:53:51.415Z,98458.34
2022-11-09T13:56:42.267Z,98484.13
2022-11-09T13:59:39.409Z,98488.47
2022-11-09T14:02:26.550Z,98466.91
2022-11-09T14:05:25.676Z,98482.09
2022-11-09T14:08:28.762Z,98489.91
2022-11-09T14:11:33.180Z,98489.06
2022-11-09T14:14:39.443Z,98488.06
2022-11-09T14:17:44.147Z,98491.59
2022-11-09T14:21:06.999Z,98490.72
2022-11-09T14:23:52.744Z,98492.53
2022-11-09T14:26:38.202Z,98495.06
2022-11-09T14:29:25.906Z,98500.38
2022-11-09T14:32:26.185Z,98501.22
2022-11-09T14:35:23.347Z,98491.47
2022-11-09T14:38:19.468Z,98486.16
2022-11-09T14:41:05.212Z,98483.63
2022-11-09T14:43:50.651Z,98481.00
2022-11-09T14:46:35.704Z,98483.28
2022-11-09T14:49:22.771Z,98482.28
2022-11-09T14:52:16.367Z,98489.41
2022-11-09T14:55:02.344Z,98486.88
2022-11-09T14:57:49.912Z,98490.50
2022-11-09T15:00:35.393Z,98492.28
2022-11-09T15:03:30.520Z,98492.41
2022-11-09T15:06:17.755Z,98494.25
2022-11-09T15:09:09.008Z,98482.78
2022-11-09T15:11:54.627Z,98491.72
2022-11-09T15:14:39.870Z,98491.00
2022-11-09T15:17:34.007Z,98488.34
2022-11-09T15:20:19.139Z,98493.63
2022-11-09T15:23:06.905Z,98503.38
2022-11-09T15:25:55.771Z,98491.13
2022-11-09T15:28:46.999Z,98495.56
2022-11-09T15:31:32.396Z,98494.72
2022-11-09T15:34:23.208Z,98499.16
2022-11-09T15:37:37.992Z,98499.16
2022-11-09T15:40:25.261Z,98493.03
2022-11-09T15:43:10.607Z,98500.84
2022-11-09T15:45:58.958Z,98494.72
2022-11-09T15:48:47.469Z,98497.50
2022-11-09T15:51:32.815Z,98500.25
2022-11-09T15:54:18.579Z,98500.25
2022-11-09T15:57:04.913Z,98490.38
2022-11-09T15:59:51.739Z,98501.56
2022-11-09T16:02:36.855Z,98519.75
2022-11-09T16:05:23.483Z,98509.41
2022-11-09T16:08:09.465Z,98493.03
2022-11-09T16:10:54.548Z,98491.19
2022-11-09T16:13:41.309Z,98501.34
2022-11-09T16:16:26.548Z,98499.66
2022-11-09T16:19:14.286Z,98503.22
2022-11-09T16:22:02.109Z,98500.72
2022-11-09T16:27:12.515Z,98507.97
2022-11-09T16:30:08.931Z,98496.03
2022-11-09T16:32:54.864Z,98516.00
2022-11-09T16:35:40.186Z,98521.44
2022-11-09T16:40:48.166Z,98517.97
2022-11-09T16:43:36.371Z,98499.38
2022-11-09T16:46:25.200Z,98521.56
2022-11-09T16:49:10.743Z,98523.75
2022-11-09T16:51:55.804Z,98527.09
2022-11-09T16:54:41.193Z,98534.19
2022-11-09T16:59:43.591Z,98528.16
2022-11-09T17:02:31.246Z,98529.03
2022-11-09T17:05:16.836Z,98536.25
2022-11-09T17:08:02.953Z,98535.38
2022-11-09T17:10:48.360Z,98529.25
2022-11-09T17:13:33.595Z,98534.56
2022-11-09T17:16:20.457Z,98536.38
2022-11-09T17:19:06.291Z,98535.28
2022-11-09T17:21:51.593Z,98536.13
2022-11-09T17:24:36.687Z,98539.63
2022-11-09T17:27:21.871Z,98538.03
2022-11-09T17:30:08.151Z,98535.50
2022-11-09T17:32:54.580Z,98534.69
2022-11-09T17:35:40.125Z,98537.47
2022-11-09T17:38:25.591Z,98545.50
2022-11-09T17:41:18.618Z,98537.81
2022-11-09T17:44:04.182Z,98541.28
2022-11-09T17:46:49.622Z,98540.47
2022-11-09T17:49:34.905Z,98526.50
2022-11-09T17:52:20.233Z,98533.59
2022-11-09T17:55:05.912Z,98543.34
2022-11-09T17:57:51.058Z,98539.84
2022-11-09T18:00:37.617Z,98533.69
2022-11-09T18:03:24.066Z,98539.13
2022-11-09T18:06:14.932Z,98538.28
2022-11-09T18:09:34.313Z,98544.41
2022-11-09T18:12:06.435Z,98547.06
2022-11-09T18:14:51.451Z,98547.19
2022-11-09T18:17:36.960Z,98545.38
2022-11-09T18:20:22.413Z,98548.03
2022-11-09T18:23:08.567Z,98540.94
2022-11-09T18:26:00.216Z,98545.50
2022-11-09T18:28:45.653Z,98549.84
2022-11-09T18:31:30.835Z,98558.00
2022-11-09T18:34:16.160Z,98550.06
2022-11-09T18:37:01.417Z,98560.78
2022-11-09T18:39:46.710Z,98560.78
2022-11-09T18:42:32.121Z,98555.63
2022-11-09T18:45:17.478Z,98546.81
2022-11-09T18:48:05.500Z,98550.44
2022-11-09T18:50:55.033Z,98548.75
2022-11-09T18:53:43.105Z,98542.59
2022-11-09T18:56:28.527Z,98539.94
2022-11-09T18:59:13.960Z,98544.53
2022-11-09T19:01:59.217Z,98546.31
2022-11-09T19:04:45.096Z,98549.22
2022-11-09T19:07:33.927Z,98548.38
2022-11-09T19:10:20.241Z,98551.88
2022-11-09T19:13:05.960Z,98551.13
2022-11-09T19:15:55.633Z,98544.06
2022-11-09T19:18:44.043Z,98558.34
2022-11-09T19:21:41.632Z,98558.34
2022-11-09T19:24:28.748Z,98556.69
2022-11-09T19:27:14.321Z,98559.41
2022-11-09T19:30:02.462Z,98561.25
2022-11-09T19:32:50.308Z,98555.09
2022-11-09T19:35:35.255Z,98563.03
2022-11-09T19:38:21.208Z,98559.69
2022-11-09T19:41:07.982Z,98564.84
2022-11-09T19:43:56.012Z,98569.31
2022-11-09T19:46:41.420Z,98568.44
2022-11-09T19:49:30.233Z,98566.66
2022-11-09T19:52:15.565Z,98558.81
2022-11-09T19:55:00.916Z,98557.84
2022-11-09T19:57:46.743Z,98554.38
2022-11-09T20:00:32.129Z,98562.44
2022-11-09T20:03:17.607Z,98560.75
2022-11-09T20:06:06.771Z,98561.72
2022-11-09T20:08:53.797Z,98557.25
2022-11-09T20:12:02.705Z,98546.78
2022-11-09T20:14:47.639Z,98560.03
2022-11-09T20:17:32.593Z,98548.59
2022-11-09T20:20:17.912Z,98554.84
2022-11-09T20:23:03.436Z,98545.09
2022-11-09T20:25:51.472Z,98546.91
2022-11-09T20:28:37.796Z,98546.03
2022-11-09T20:31:23.655Z,98553.91
2022-11-09T20:34:09.000Z,98556.53
2022-11-09T20:36:54.918Z,98560.16
2022-11-09T20:39:41.394Z,98566.25
2022-11-09T20:42:26.431Z,98558.31
2022-11-09T20:45:11.820Z,98556.53
2022-11-09T20:48:14.393Z,98552.19
2022-11-09T20:51:07.056Z,98552.19
2022-11-09T20:53:52.677Z,98555.81
2022-11-09T20:56:37.751Z,98557.63
2022-11-09T20:59:23.061Z,98555.94
2022-11-09T21:02:15.873Z,98569.03
2022-11-09T21:05:01.635Z,98556.88
2022-11-09T21:07:46.601Z,98561.22
2022-11-09T21:10:35.061Z,98573.50
2022-11-09T21:13:20.600Z,98559.53
2022-11-09T21:16:16.647Z,98562.19
2022-11-09T21:19:01.985Z,98566.59
2022-11-09T21:21:47.377Z,98561.44
2022-11-09T21:24:51.320Z,98570.25
2022-11-09T21:27:55.011Z,98567.59
2022-11-09T21:30:40.158Z,98576.38
2022-11-09T21:33:25.559Z,98558.31
2022-11-09T21:36:12.723Z,98569.25
2022-11-09T21:38:58.324Z,98580.69
2022-11-09T21:41:43.988Z,98582.50
2022-11-09T21:44:31.422Z,98579.75
2022-11-09T21:47:16.541Z,98585.75
2022-11-09T21:50:02.046Z,98587.44
2022-11-09T21:52:47.324Z,98587.44
2022-11-09T21:55:34.063Z,98587.44
2022-11-09T21:58:19.000Z,98587.31
2022-11-09T22:01:09.662Z,98595.16
2022-11-09T22:03:55.888Z,98587.22
2022-11-09T22:06:43.362Z,98590.69
2022-11-09T22:09:35.732Z,98587.22
2022-11-09T22:12:44.378Z,98590.81
2022-11-09T22:15:48.260Z,98533.41
2022-11-09T22:18:53.375Z,98584.66
2022-11-09T22:21:38.578Z,98596.13
2022-11-09T22:24:23.923Z,98588.19
2022-11-09T22:27:09.448Z,98581.94
2022-11-09T22:29:54.768Z,98577.59
2022-11-09T22:32:40.111Z,98564.22
2022-11-09T22:35:25.587Z,98582.88
2022-11-09T22:38:10.867Z,98586.50
2022-11-09T22:41:01.407Z,98592.72
2022-11-09T22:43:46.555Z,98591.91
2022-11-09T22:46:31.914Z,98596.34
2022-11-09T22:49:19.034Z,98592.84
2022-11-09T22:52:05.061Z,98600.94
2022-11-09T22:54:50.129Z,98592.97
2022-11-09T22:57:37.112Z,98594.78
2022-11-09T23:00:23.067Z,98605.34
2022-11-09T23:03:08.228Z,98600.94
2022-11-09T23:05:53.639Z,98600.06
2022-11-09T23:08:39.195Z,98582.31
2022-11-09T23:11:25.094Z,98603.78
2022-11-09T23:14:10.480Z,98602.97
2022-11-09T23:16:55.695Z,98603.03
2022-11-09T23:19:41.088Z,98609.19
2022-11-09T23:22:26.263Z,98606.69
2022-11-09T23:25:31.617Z,98605.94
2022-11-09T23:28:17.498Z,98610.28
2022-11-09T23:31:06.775Z,98629.63
2022-11-09T23:33:56.287Z,98632.28
2022-11-09T23:36:41.577Z,98625.28
2022-11-09T23:39:26.808Z,98633.22
2022-11-09T23:42:11.749Z,98635.78
2022-11-09T23:44:57.754Z,98639.38
2022-11-09T23:47:42.820Z,98627.09
2022-11-09T23:50:28.570Z,98619.16
2022-11-09T23:53:14.490Z,98636.09
2022-11-09T23:56:05.086Z,98639.50
2022-11-09T23:58:51.715Z,98629.88
